Terminal Aerodrome Forecast
Issued by NWS

Home | Current Version | Previous Version | Text Only | Print | Product List | Glossary On
Versions: 1 2 3 4 5 6 7 8 9 10 11 12 13 14
000
FTUS43 KAPX 180500
TAFTVC
TAF
KTVC 180536Z 1806/1906 02007KT P6SM SCT025 OVC050
     FM180800 03005KT P6SM OVC021
     FM181300 05005KT P6SM BKN024
     FM181700 06006KT P6SM FEW028
     FM190100 07003KT P6SM SKC=

USA.gov is the U.S. government's official web portal to all federal, state and local government web resources and services.